Wagga Wagga, Australia
Current Conditions -  °F | °C
As of 9:00 PM on Sunday 25 Jan 2015 (Local Time) from YSWG Reporting Station
Clear Clear  
Wind Chill: 66°   Ceiling: Unl
Heat Index: 66°   Visibility: 6mi
Dew Point: 41°   Wind: 9mph
Humidity: 40%   Direction: 210°SSW
Pressure: 29.77"   Gusts: NA
Location:  35.11°S, 147.37°E
Report Text: YSWG 251000Z 21008KT CAVOK 19/05 Q1008
Loading
Personal Weather Stations






























Interactive Weather Map New forecast layout! Learn more

10-Day Weather Forecast

Advertisements
Track Severe Weather on mobile